Terminal Aerodrome Forecast
Issued by NWS Corpus Christi, TX

Home | Current Version | Previous Version | Text Only | Print | Product List | Glossary On
Versions: 1 2 3 4 5 6 7 8 9 10 11 12 13 14
000
FTUS44 KCRP 031124
TAFCRP
TAF
KCRP 031124Z 0312/0412 14006KT P6SM FEW025
     FM031500 16007KT P6SM SCT030
     FM031800 13012G18KT P6SM SCT040
     FM040000 14010KT P6SM FEW250
     FM040700 12004KT P6SM FEW025=

USA.gov is the U.S. government's official web portal to all federal, state and local government web resources and services.